sensor_id;sensor_type;location;lat;lon;timestamp;P1;durP1;ratioP1;P2;durP2;ratioP2
29026;SDS011;16120;48.608;9.092;2023-03-16T00:02:57;85.85;;;8.95;;
29026;SDS011;16120;48.608;9.092;2023-03-16T00:06:52;87.27;;;9.07;;
29026;SDS011;16120;48.608;9.092;2023-03-16T00:10:47;85.18;;;8.15;;
29026;SDS011;16120;48.608;9.092;2023-03-16T00:14:43;84.50;;;8.63;;
29026;SDS011;16120;48.608;9.092;2023-03-16T00:18:40;82.83;;;8.80;;
29026;SDS011;16120;48.608;9.092;2023-03-16T00:22:35;86.80;;;9.90;;
29026;SDS011;16120;48.608;9.092;2023-03-16T00:26:30;89.17;;;10.17;;
29026;SDS011;16120;48.608;9.092;2023-03-16T00:30:25;87.63;;;10.15;;
29026;SDS011;16120;48.608;9.092;2023-03-16T00:34:22;92.63;;;11.00;;
29026;SDS011;16120;48.608;9.092;2023-03-16T00:38:18;90.50;;;12.13;;
29026;SDS011;16120;48.608;9.092;2023-03-16T00:42:14;91.00;;;11.97;;
29026;SDS011;16120;48.608;9.092;2023-03-16T00:46:10;96.77;;;12.10;;
29026;SDS011;16120;48.608;9.092;2023-03-16T00:50:07;98.83;;;13.07;;
29026;SDS011;16120;48.608;9.092;2023-03-16T00:54:03;85.73;;;10.90;;
29026;SDS011;16120;48.608;9.092;2023-03-16T00:57:58;93.03;;;10.63;;
29026;SDS011;16120;48.608;9.092;2023-03-16T01:01:53;85.77;;;10.47;;
29026;SDS011;16120;48.608;9.092;2023-03-16T01:05:50;87.70;;;10.20;;
29026;SDS011;16120;48.608;9.092;2023-03-16T01:09:45;89.73;;;11.30;;
29026;SDS011;16120;48.608;9.092;2023-03-16T01:13:41;87.40;;;11.20;;
29026;SDS011;16120;48.608;9.092;2023-03-16T01:17:36;85.97;;;10.67;;
29026;SDS011;16120;48.608;9.092;2023-03-16T01:21:33;84.18;;;8.95;;
29026;SDS011;16120;48.608;9.092;2023-03-16T01:25:28;84.53;;;10.53;;
29026;SDS011;16120;48.608;9.092;2023-03-16T01:29:23;85.87;;;10.77;;
29026;SDS011;16120;48.608;9.092;2023-03-16T01:33:18;85.33;;;10.70;;
29026;SDS011;16120;48.608;9.092;2023-03-16T01:37:15;86.87;;;10.87;;
29026;SDS011;16120;48.608;9.092;2023-03-16T01:41:10;88.33;;;11.10;;
29026;SDS011;16120;48.608;9.092;2023-03-16T01:49:22;89.10;;;10.37;;
29026;SDS011;16120;48.608;9.092;2023-03-16T01:53:19;87.57;;;10.57;;
29026;SDS011;16120;48.608;9.092;2023-03-16T01:57:15;83.90;;;9.60;;
29026;SDS011;16120;48.608;9.092;2023-03-16T02:01:12;85.60;;;10.60;;
29026;SDS011;16120;48.608;9.092;2023-03-16T02:05:09;84.17;;;10.10;;
29026;SDS011;16120;48.608;9.092;2023-03-16T02:09:07;87.00;;;10.43;;
29026;SDS011;16120;48.608;9.092;2023-03-16T02:13:03;84.90;;;10.10;;
29026;SDS011;16120;48.608;9.092;2023-03-16T02:16:58;86.15;;;9.52;;
29026;SDS011;16120;48.608;9.092;2023-03-16T02:20:54;89.43;;;9.50;;
29026;SDS011;16120;48.608;9.092;2023-03-16T02:24:52;82.67;;;9.43;;
29026;SDS011;16120;48.608;9.092;2023-03-16T02:28:48;81.37;;;9.20;;
29026;SDS011;16120;48.608;9.092;2023-03-16T02:32:49;82.47;;;8.83;;
29026;SDS011;16120;48.608;9.092;2023-03-16T02:36:44;85.47;;;10.03;;
29026;SDS011;16120;48.608;9.092;2023-03-16T02:40:41;86.40;;;9.90;;
29026;SDS011;16120;48.608;9.092;2023-03-16T02:44:36;85.45;;;9.73;;
29026;SDS011;16120;48.608;9.092;2023-03-16T02:48:34;83.63;;;9.40;;
29026;SDS011;16120;48.608;9.092;2023-03-16T02:52:31;83.83;;;9.43;;
29026;SDS011;16120;48.608;9.092;2023-03-16T02:56:26;85.37;;;9.80;;
29026;SDS011;16120;48.608;9.092;2023-03-16T03:00:21;86.97;;;10.13;;
29026;SDS011;16120;48.608;9.092;2023-03-16T03:04:18;87.67;;;10.03;;
29026;SDS011;16120;48.608;9.092;2023-03-16T03:08:13;84.67;;;9.00;;
29026;SDS011;16120;48.608;9.092;2023-03-16T03:12:09;83.80;;;9.33;;
29026;SDS011;16120;48.608;9.092;2023-03-16T03:16:05;88.30;;;9.40;;
29026;SDS011;16120;48.608;9.092;2023-03-16T03:20:02;83.20;;;8.80;;
29026;SDS011;16120;48.608;9.092;2023-03-16T03:23:57;81.40;;;9.43;;
29026;SDS011;16120;48.608;9.092;2023-03-16T03:27:52;83.72;;;9.05;;
29026;SDS011;16120;48.608;9.092;2023-03-16T03:31:47;83.60;;;9.77;;
29026;SDS011;16120;48.608;9.092;2023-03-16T03:35:44;83.50;;;8.60;;
29026;SDS011;16120;48.608;9.092;2023-03-16T03:39:39;83.37;;;8.47;;
29026;SDS011;16120;48.608;9.092;2023-03-16T03:43:34;81.07;;;8.27;;
29026;SDS011;16120;48.608;9.092;2023-03-16T03:47:30;81.25;;;8.45;;
29026;SDS011;16120;48.608;9.092;2023-03-16T03:51:26;83.53;;;9.25;;
29026;SDS011;16120;48.608;9.092;2023-03-16T03:55:21;82.53;;;8.67;;
29026;SDS011;16120;48.608;9.092;2023-03-16T03:59:17;82.77;;;8.07;;
29026;SDS011;16120;48.608;9.092;2023-03-16T04:03:12;81.80;;;8.83;;
29026;SDS011;16120;48.608;9.092;2023-03-16T04:07:09;81.80;;;8.57;;
29026;SDS011;16120;48.608;9.092;2023-03-16T04:11:04;84.50;;;9.73;;
29026;SDS011;16120;48.608;9.092;2023-03-16T04:14:59;83.75;;;9.20;;
29026;SDS011;16120;48.608;9.092;2023-03-16T04:18:54;82.00;;;8.87;;
29026;SDS011;16120;48.608;9.092;2023-03-16T04:22:51;84.53;;;8.93;;
29026;SDS011;16120;48.608;9.092;2023-03-16T04:26:47;81.87;;;8.80;;
29026;SDS011;16120;48.608;9.092;2023-03-16T04:30:42;91.10;;;9.70;;
29026;SDS011;16120;48.608;9.092;2023-03-16T04:34:37;83.70;;;8.77;;
29026;SDS011;16120;48.608;9.092;2023-03-16T04:38:34;82.20;;;8.32;;
29026;SDS011;16120;48.608;9.092;2023-03-16T04:42:29;81.67;;;7.77;;
29026;SDS011;16120;48.608;9.092;2023-03-16T04:46:24;81.57;;;8.73;;
29026;SDS011;16120;48.608;9.092;2023-03-16T04:50:20;84.93;;;8.27;;
29026;SDS011;16120;48.608;9.092;2023-03-16T04:54:16;84.37;;;9.50;;
29026;SDS011;16120;48.608;9.092;2023-03-16T04:58:11;85.90;;;9.27;;
29026;SDS011;16120;48.608;9.092;2023-03-16T05:02:07;89.80;;;9.87;;
29026;SDS011;16120;48.608;9.092;2023-03-16T05:06:02;87.60;;;9.87;;
29026;SDS011;16120;48.608;9.092;2023-03-16T05:09:59;80.37;;;8.80;;
29026;SDS011;16120;48.608;9.092;2023-03-16T05:13:54;83.17;;;8.73;;
29026;SDS011;16120;48.608;9.092;2023-03-16T05:17:49;84.10;;;8.88;;
29026;SDS011;16120;48.608;9.092;2023-03-16T05:21:44;83.43;;;8.40;;
29026;SDS011;16120;48.608;9.092;2023-03-16T05:25:41;81.47;;;8.63;;
29026;SDS011;16120;48.608;9.092;2023-03-16T05:29:36;84.17;;;8.70;;
29026;SDS011;16120;48.608;9.092;2023-03-16T05:33:31;82.87;;;8.90;;
29026;SDS011;16120;48.608;9.092;2023-03-16T05:37:26;83.17;;;9.27;;
29026;SDS011;16120;48.608;9.092;2023-03-16T05:41:23;86.43;;;9.27;;
29026;SDS011;16120;48.608;9.092;2023-03-16T05:45:18;83.97;;;10.30;;
29026;SDS011;16120;48.608;9.092;2023-03-16T05:49:14;83.47;;;9.90;;
29026;SDS011;16120;48.608;9.092;2023-03-16T05:53:09;81.93;;;9.20;;
29026;SDS011;16120;48.608;9.092;2023-03-16T05:57:05;87.03;;;9.93;;
29026;SDS011;16120;48.608;9.092;2023-03-16T06:01:01;86.40;;;9.80;;
29026;SDS011;16120;48.608;9.092;2023-03-16T06:04:56;83.78;;;9.00;;
29026;SDS011;16120;48.608;9.092;2023-03-16T06:08:51;85.50;;;10.10;;
29026;SDS011;16120;48.608;9.092;2023-03-16T06:12:48;86.00;;;9.75;;
29026;SDS011;16120;48.608;9.092;2023-03-16T06:16:44;84.47;;;9.40;;
29026;SDS011;16120;48.608;9.092;2023-03-16T06:20:39;85.90;;;10.30;;
29026;SDS011;16120;48.608;9.092;2023-03-16T06:24:34;85.97;;;9.97;;
29026;SDS011;16120;48.608;9.092;2023-03-16T06:32:27;91.27;;;11.20;;
29026;SDS011;16120;48.608;9.092;2023-03-16T06:36:22;83.97;;;10.40;;
29026;SDS011;16120;48.608;9.092;2023-03-16T06:40:18;85.40;;;10.13;;
29026;SDS011;16120;48.608;9.092;2023-03-16T06:44:13;84.10;;;10.93;;
29026;SDS011;16120;48.608;9.092;2023-03-16T06:48:09;86.33;;;10.50;;
29026;SDS011;16120;48.608;9.092;2023-03-16T06:52:05;93.60;;;12.13;;
29026;SDS011;16120;48.608;9.092;2023-03-16T06:56:00;91.13;;;11.50;;
29026;SDS011;16120;48.608;9.092;2023-03-16T06:59:55;85.53;;;10.90;;
29026;SDS011;16120;48.608;9.092;2023-03-16T07:03:52;86.43;;;10.17;;
29026;SDS011;16120;48.608;9.092;2023-03-16T07:07:47;90.03;;;10.33;;
29026;SDS011;16120;48.608;9.092;2023-03-16T07:11:42;86.53;;;11.03;;
29026;SDS011;16120;48.608;9.092;2023-03-16T07:15:37;87.93;;;11.95;;
29026;SDS011;16120;48.608;9.092;2023-03-16T07:19:34;86.60;;;10.53;;
29026;SDS011;16120;48.608;9.092;2023-03-16T07:23:29;88.70;;;11.80;;
29026;SDS011;16120;48.608;9.092;2023-03-16T07:27:24;87.82;;;11.30;;
29026;SDS011;16120;48.608;9.092;2023-03-16T07:31:19;90.38;;;12.18;;
29026;SDS011;16120;48.608;9.092;2023-03-16T07:35:16;92.20;;;11.90;;
29026;SDS011;16120;48.608;9.092;2023-03-16T07:39:12;91.40;;;11.73;;
29026;SDS011;16120;48.608;9.092;2023-03-16T07:43:07;88.03;;;13.60;;
29026;SDS011;16120;48.608;9.092;2023-03-16T07:47:02;89.68;;;13.63;;
29026;SDS011;16120;48.608;9.092;2023-03-16T07:50:59;86.22;;;13.02;;
29026;SDS011;16120;48.608;9.092;2023-03-16T07:54:54;88.10;;;13.37;;
29026;SDS011;16120;48.608;9.092;2023-03-16T07:58:49;87.80;;;12.53;;
29026;SDS011;16120;48.608;9.092;2023-03-16T08:02:44;90.90;;;11.30;;
29026;SDS011;16120;48.608;9.092;2023-03-16T08:06:41;86.03;;;11.73;;
29026;SDS011;16120;48.608;9.092;2023-03-16T08:10:36;86.53;;;11.20;;
29026;SDS011;16120;48.608;9.092;2023-03-16T08:14:31;85.97;;;11.13;;
29026;SDS011;16120;48.608;9.092;2023-03-16T08:18:27;88.37;;;11.00;;
29026;SDS011;16120;48.608;9.092;2023-03-16T08:22:24;84.57;;;10.50;;
29026;SDS011;16120;48.608;9.092;2023-03-16T08:26:19;86.00;;;10.93;;
29026;SDS011;16120;48.608;9.092;2023-03-16T08:30:15;85.47;;;10.33;;
29026;SDS011;16120;48.608;9.092;2023-03-16T08:34:11;86.10;;;10.20;;
29026;SDS011;16120;48.608;9.092;2023-03-16T08:38:07;85.37;;;10.43;;
29026;SDS011;16120;48.608;9.092;2023-03-16T08:42:03;86.47;;;10.10;;
29026;SDS011;16120;48.608;9.092;2023-03-16T08:45:58;85.80;;;10.57;;
29026;SDS011;16120;48.608;9.092;2023-03-16T08:49:53;84.50;;;9.17;;
29026;SDS011;16120;48.608;9.092;2023-03-16T08:53:50;80.17;;;8.30;;
29026;SDS011;16120;48.608;9.092;2023-03-16T08:57:45;83.67;;;8.23;;
29026;SDS011;16120;48.608;9.092;2023-03-16T09:01:40;82.63;;;8.07;;
29026;SDS011;16120;48.608;9.092;2023-03-16T09:05:35;80.80;;;7.73;;
29026;SDS011;16120;48.608;9.092;2023-03-16T09:09:32;85.47;;;7.83;;
29026;SDS011;16120;48.608;9.092;2023-03-16T09:13:27;81.17;;;7.80;;
29026;SDS011;16120;48.608;9.092;2023-03-16T09:17:22;80.70;;;7.87;;
29026;SDS011;16120;48.608;9.092;2023-03-16T09:21:17;81.23;;;7.53;;
29026;SDS011;16120;48.608;9.092;2023-03-16T09:25:14;84.20;;;7.90;;
29026;SDS011;16120;48.608;9.092;2023-03-16T09:29:09;82.27;;;7.70;;
29026;SDS011;16120;48.608;9.092;2023-03-16T09:33:04;82.30;;;8.10;;
29026;SDS011;16120;48.608;9.092;2023-03-16T09:37:00;84.83;;;8.23;;
29026;SDS011;16120;48.608;9.092;2023-03-16T09:40:57;80.67;;;7.17;;
29026;SDS011;16120;48.608;9.092;2023-03-16T09:44:58;79.80;;;7.13;;
29026;SDS011;16120;48.608;9.092;2023-03-16T09:48:56;81.47;;;7.10;;
29026;SDS011;16120;48.608;9.092;2023-03-16T09:52:53;84.10;;;7.20;;
29026;SDS011;16120;48.608;9.092;2023-03-16T09:56:50;80.77;;;6.93;;
29026;SDS011;16120;48.608;9.092;2023-03-16T10:00:47;79.37;;;7.10;;
29026;SDS011;16120;48.608;9.092;2023-03-16T10:04:49;91.77;;;18.83;;
29026;SDS011;16120;48.608;9.092;2023-03-16T10:08:48;80.23;;;7.80;;
29026;SDS011;16120;48.608;9.092;2023-03-16T10:12:48;81.10;;;7.83;;
29026;SDS011;16120;48.608;9.092;2023-03-16T10:16:46;82.27;;;7.40;;
29026;SDS011;16120;48.608;9.092;2023-03-16T10:20:41;81.27;;;6.50;;
29026;SDS011;16120;48.608;9.092;2023-03-16T10:24:39;84.67;;;7.97;;
29026;SDS011;16120;48.608;9.092;2023-03-16T10:28:38;78.90;;;7.07;;
29026;SDS011;16120;48.608;9.092;2023-03-16T10:32:33;81.97;;;7.00;;
29026;SDS011;16120;48.608;9.092;2023-03-16T10:36:29;79.07;;;7.03;;
29026;SDS011;16120;48.608;9.092;2023-03-16T10:40:26;80.20;;;7.03;;
29026;SDS011;16120;48.608;9.092;2023-03-16T10:44:26;80.60;;;6.70;;
29026;SDS011;16120;48.608;9.092;2023-03-16T10:48:21;77.83;;;5.60;;
29026;SDS011;16120;48.608;9.092;2023-03-16T10:52:18;84.47;;;6.20;;
29026;SDS011;16120;48.608;9.092;2023-03-16T10:56:18;78.70;;;5.47;;
29026;SDS011;16120;48.608;9.092;2023-03-16T11:00:16;77.67;;;5.80;;
29026;SDS011;16120;48.608;9.092;2023-03-16T11:04:13;77.10;;;5.50;;
29026;SDS011;16120;48.608;9.092;2023-03-16T11:08:11;79.40;;;5.80;;
29026;SDS011;16120;48.608;9.092;2023-03-16T11:12:13;78.80;;;5.93;;
29026;SDS011;16120;48.608;9.092;2023-03-16T11:16:16;79.17;;;5.83;;
29026;SDS011;16120;48.608;9.092;2023-03-16T11:20:13;82.90;;;5.87;;
29026;SDS011;16120;48.608;9.092;2023-03-16T11:24:13;77.90;;;6.07;;
29026;SDS011;16120;48.608;9.092;2023-03-16T11:28:11;80.57;;;7.90;;
29026;SDS011;16120;48.608;9.092;2023-03-16T11:32:11;78.33;;;5.40;;
29026;SDS011;16120;48.608;9.092;2023-03-16T11:36:12;82.70;;;5.70;;
29026;SDS011;16120;48.608;9.092;2023-03-16T11:40:16;77.90;;;5.47;;
29026;SDS011;16120;48.608;9.092;2023-03-16T11:44:14;90.50;;;19.80;;
29026;SDS011;16120;48.608;9.092;2023-03-16T11:48:17;78.40;;;5.53;;
29026;SDS011;16120;48.608;9.092;2023-03-16T11:52:16;77.40;;;5.33;;
29026;SDS011;16120;48.608;9.092;2023-03-16T11:56:16;78.43;;;5.07;;
29026;SDS011;16120;48.608;9.092;2023-03-16T12:00:18;77.37;;;5.03;;
29026;SDS011;16120;48.608;9.092;2023-03-16T12:04:20;78.20;;;5.23;;
29026;SDS011;16120;48.608;9.092;2023-03-16T12:08:23;77.10;;;5.10;;
29026;SDS011;16120;48.608;9.092;2023-03-16T12:12:24;79.80;;;4.70;;
29026;SDS011;16120;48.608;9.092;2023-03-16T12:16:22;77.30;;;5.07;;
29026;SDS011;16120;48.608;9.092;2023-03-16T12:20:21;76.03;;;4.70;;
29026;SDS011;16120;48.608;9.092;2023-03-16T12:24:17;75.90;;;4.87;;
29026;SDS011;16120;48.608;9.092;2023-03-16T12:28:15;76.87;;;4.63;;
29026;SDS011;16120;48.608;9.092;2023-03-16T12:32:13;76.67;;;5.07;;
29026;SDS011;16120;48.608;9.092;2023-03-16T12:36:21;74.83;;;4.40;;
29026;SDS011;16120;48.608;9.092;2023-03-16T12:40:23;75.17;;;4.60;;
29026;SDS011;16120;48.608;9.092;2023-03-16T12:44:20;74.20;;;4.07;;
29026;SDS011;16120;48.608;9.092;2023-03-16T12:48:19;77.70;;;5.20;;
29026;SDS011;16120;48.608;9.092;2023-03-16T12:52:19;75.87;;;4.57;;
29026;SDS011;16120;48.608;9.092;2023-03-16T12:56:15;79.20;;;5.00;;
29026;SDS011;16120;48.608;9.092;2023-03-16T13:00:11;77.70;;;5.23;;
29026;SDS011;16120;48.608;9.092;2023-03-16T13:04:07;77.10;;;4.80;;
29026;SDS011;16120;48.608;9.092;2023-03-16T13:08:06;80.13;;;5.10;;
29026;SDS011;16120;48.608;9.092;2023-03-16T13:12:01;75.90;;;4.73;;
29026;SDS011;16120;48.608;9.092;2023-03-16T13:16:01;78.47;;;5.03;;
29026;SDS011;16120;48.608;9.092;2023-03-16T13:19:57;77.17;;;4.97;;
29026;SDS011;16120;48.608;9.092;2023-03-16T13:23:58;77.00;;;5.10;;
29026;SDS011;16120;48.608;9.092;2023-03-16T13:27:54;75.80;;;5.00;;
29026;SDS011;16120;48.608;9.092;2023-03-16T13:31:50;77.10;;;5.50;;
29026;SDS011;16120;48.608;9.092;2023-03-16T13:35:46;78.80;;;6.43;;
29026;SDS011;16120;48.608;9.092;2023-03-16T13:39:49;77.10;;;5.40;;
29026;SDS011;16120;48.608;9.092;2023-03-16T13:43:45;76.33;;;5.20;;
29026;SDS011;16120;48.608;9.092;2023-03-16T13:47:41;77.37;;;5.33;;
29026;SDS011;16120;48.608;9.092;2023-03-16T13:51:36;79.50;;;4.57;;
29026;SDS011;16120;48.608;9.092;2023-03-16T13:55:34;76.17;;;4.43;;
29026;SDS011;16120;48.608;9.092;2023-03-16T13:59:30;75.83;;;4.60;;
29026;SDS011;16120;48.608;9.092;2023-03-16T14:03:29;74.30;;;4.40;;
29026;SDS011;16120;48.608;9.092;2023-03-16T14:07:24;74.77;;;4.50;;
29026;SDS011;16120;48.608;9.092;2023-03-16T14:11:22;75.80;;;5.83;;
29026;SDS011;16120;48.608;9.092;2023-03-16T14:15:17;77.07;;;5.20;;
29026;SDS011;16120;48.608;9.092;2023-03-16T14:19:15;75.77;;;4.43;;
29026;SDS011;16120;48.608;9.092;2023-03-16T14:23:17;75.20;;;4.97;;
29026;SDS011;16120;48.608;9.092;2023-03-16T14:27:18;76.23;;;4.80;;
29026;SDS011;16120;48.608;9.092;2023-03-16T14:31:17;76.33;;;4.80;;
29026;SDS011;16120;48.608;9.092;2023-03-16T14:35:14;74.47;;;4.10;;
29026;SDS011;16120;48.608;9.092;2023-03-16T14:39:10;76.47;;;5.57;;
29026;SDS011;16120;48.608;9.092;2023-03-16T14:43:08;96.37;;;28.43;;
29026;SDS011;16120;48.608;9.092;2023-03-16T14:47:04;77.53;;;6.80;;
29026;SDS011;16120;48.608;9.092;2023-03-16T14:50:59;76.00;;;4.87;;
29026;SDS011;16120;48.608;9.092;2023-03-16T14:54:55;74.70;;;4.50;;
29026;SDS011;16120;48.608;9.092;2023-03-16T14:58:52;76.73;;;4.53;;
29026;SDS011;16120;48.608;9.092;2023-03-16T15:02:51;76.17;;;4.70;;
29026;SDS011;16120;48.608;9.092;2023-03-16T15:06:48;74.83;;;5.70;;
29026;SDS011;16120;48.608;9.092;2023-03-16T15:10:43;74.43;;;4.50;;
29026;SDS011;16120;48.608;9.092;2023-03-16T15:14:40;73.80;;;4.40;;
29026;SDS011;16120;48.608;9.092;2023-03-16T15:18:35;75.87;;;4.50;;
29026;SDS011;16120;48.608;9.092;2023-03-16T15:22:31;79.90;;;6.97;;
29026;SDS011;16120;48.608;9.092;2023-03-16T15:26:27;75.77;;;4.40;;
29026;SDS011;16120;48.608;9.092;2023-03-16T15:30:25;75.23;;;4.63;;
29026;SDS011;16120;48.608;9.092;2023-03-16T15:34:21;75.07;;;4.10;;
29026;SDS011;16120;48.608;9.092;2023-03-16T15:38:17;75.40;;;5.10;;
29026;SDS011;16120;48.608;9.092;2023-03-16T15:42:13;74.30;;;4.40;;
29026;SDS011;16120;48.608;9.092;2023-03-16T15:46:10;74.37;;;4.67;;
29026;SDS011;16120;48.608;9.092;2023-03-16T15:50:10;75.37;;;4.37;;
29026;SDS011;16120;48.608;9.092;2023-03-16T15:54:06;75.83;;;5.50;;
29026;SDS011;16120;48.608;9.092;2023-03-16T15:58:02;74.77;;;4.60;;
29026;SDS011;16120;48.608;9.092;2023-03-16T16:02:00;73.27;;;4.33;;
29026;SDS011;16120;48.608;9.092;2023-03-16T16:05:55;75.37;;;4.17;;
29026;SDS011;16120;48.608;9.092;2023-03-16T16:09:50;75.67;;;4.67;;
29026;SDS011;16120;48.608;9.092;2023-03-16T16:13:45;74.77;;;4.40;;
29026;SDS011;16120;48.608;9.092;2023-03-16T16:17:42;74.10;;;3.90;;
29026;SDS011;16120;48.608;9.092;2023-03-16T16:21:37;75.60;;;4.57;;
29026;SDS011;16120;48.608;9.092;2023-03-16T16:25:33;78.38;;;6.40;;
29026;SDS011;16120;48.608;9.092;2023-03-16T16:29:30;81.10;;;7.60;;
29026;SDS011;16120;48.608;9.092;2023-03-16T16:33:27;76.70;;;5.43;;
29026;SDS011;16120;48.608;9.092;2023-03-16T16:37:23;77.20;;;5.80;;
29026;SDS011;16120;48.608;9.092;2023-03-16T16:41:22;79.43;;;6.15;;
29026;SDS011;16120;48.608;9.092;2023-03-16T16:45:18;79.77;;;5.90;;
29026;SDS011;16120;48.608;9.092;2023-03-16T16:49:17;77.87;;;6.30;;
29026;SDS011;16120;48.608;9.092;2023-03-16T16:53:13;82.43;;;5.50;;
29026;SDS011;16120;48.608;9.092;2023-03-16T16:57:16;76.87;;;6.00;;
29026;SDS011;16120;48.608;9.092;2023-03-16T17:01:12;75.07;;;4.97;;
29026;SDS011;16120;48.608;9.092;2023-03-16T17:05:18;81.60;;;8.10;;
29026;SDS011;16120;48.608;9.092;2023-03-16T17:09:13;77.53;;;6.03;;
29026;SDS011;16120;48.608;9.092;2023-03-16T17:13:09;79.57;;;6.13;;
29026;SDS011;16120;48.608;9.092;2023-03-16T17:17:12;78.20;;;6.23;;
29026;SDS011;16120;48.608;9.092;2023-03-16T17:21:11;80.50;;;7.53;;
29026;SDS011;16120;48.608;9.092;2023-03-16T17:25:06;79.20;;;6.07;;
29026;SDS011;16120;48.608;9.092;2023-03-16T17:29:02;77.30;;;5.70;;
29026;SDS011;16120;48.608;9.092;2023-03-16T17:32:59;78.70;;;6.03;;
29026;SDS011;16120;48.608;9.092;2023-03-16T17:36:57;77.40;;;6.07;;
29026;SDS011;16120;48.608;9.092;2023-03-16T17:40:53;78.80;;;6.20;;
29026;SDS011;16120;48.608;9.092;2023-03-16T17:44:50;79.57;;;6.97;;
29026;SDS011;16120;48.608;9.092;2023-03-16T17:48:45;78.87;;;7.23;;
29026;SDS011;16120;48.608;9.092;2023-03-16T17:52:42;77.60;;;5.87;;
29026;SDS011;16120;48.608;9.092;2023-03-16T17:56:37;78.00;;;5.30;;
29026;SDS011;16120;48.608;9.092;2023-03-16T18:00:34;76.20;;;5.40;;
29026;SDS011;16120;48.608;9.092;2023-03-16T18:04:29;81.00;;;5.00;;
29026;SDS011;16120;48.608;9.092;2023-03-16T18:08:26;81.70;;;5.30;;
29026;SDS011;16120;48.608;9.092;2023-03-16T18:12:22;76.63;;;4.50;;
29026;SDS011;16120;48.608;9.092;2023-03-16T18:16:17;77.20;;;5.10;;
29026;SDS011;16120;48.608;9.092;2023-03-16T18:20:18;77.10;;;4.70;;
29026;SDS011;16120;48.608;9.092;2023-03-16T18:24:15;76.53;;;4.83;;
29026;SDS011;16120;48.608;9.092;2023-03-16T18:28:11;78.50;;;4.80;;
29026;SDS011;16120;48.608;9.092;2023-03-16T18:32:08;76.93;;;4.73;;
29026;SDS011;16120;48.608;9.092;2023-03-16T18:36:06;78.07;;;4.70;;
29026;SDS011;16120;48.608;9.092;2023-03-16T18:40:03;78.63;;;4.93;;
29026;SDS011;16120;48.608;9.092;2023-03-16T18:43:59;77.77;;;5.13;;
29026;SDS011;16120;48.608;9.092;2023-03-16T18:47:55;79.40;;;5.53;;
29026;SDS011;16120;48.608;9.092;2023-03-16T18:51:50;87.77;;;10.53;;
29026;SDS011;16120;48.608;9.092;2023-03-16T18:55:47;87.87;;;10.80;;
29026;SDS011;16120;48.608;9.092;2023-03-16T18:59:42;80.17;;;6.40;;
29026;SDS011;16120;48.608;9.092;2023-03-16T19:03:39;77.83;;;5.70;;
29026;SDS011;16120;48.608;9.092;2023-03-16T19:07:37;88.13;;;5.30;;
29026;SDS011;16120;48.608;9.092;2023-03-16T19:11:35;81.90;;;5.70;;
29026;SDS011;16120;48.608;9.092;2023-03-16T19:15:31;80.93;;;7.40;;
29026;SDS011;16120;48.608;9.092;2023-03-16T19:19:27;84.53;;;7.03;;
29026;SDS011;16120;48.608;9.092;2023-03-16T19:23:23;81.70;;;6.17;;
29026;SDS011;16120;48.608;9.092;2023-03-16T19:27:21;80.53;;;7.03;;
29026;SDS011;16120;48.608;9.092;2023-03-16T19:31:17;81.73;;;8.07;;
29026;SDS011;16120;48.608;9.092;2023-03-16T19:35:13;82.80;;;8.20;;
29026;SDS011;16120;48.608;9.092;2023-03-16T19:39:09;85.63;;;11.27;;
29026;SDS011;16120;48.608;9.092;2023-03-16T19:43:09;82.50;;;8.60;;
29026;SDS011;16120;48.608;9.092;2023-03-16T19:47:07;89.20;;;12.90;;
29026;SDS011;16120;48.608;9.092;2023-03-16T19:51:07;90.00;;;13.20;;
29026;SDS011;16120;48.608;9.092;2023-03-16T19:55:04;86.70;;;9.00;;
29026;SDS011;16120;48.608;9.092;2023-03-16T19:59:01;91.50;;;13.37;;
29026;SDS011;16120;48.608;9.092;2023-03-16T20:02:56;83.63;;;9.60;;
29026;SDS011;16120;48.608;9.092;2023-03-16T20:06:51;87.07;;;8.90;;
29026;SDS011;16120;48.608;9.092;2023-03-16T20:10:47;83.03;;;7.90;;
29026;SDS011;16120;48.608;9.092;2023-03-16T20:14:43;81.50;;;6.60;;
29026;SDS011;16120;48.608;9.092;2023-03-16T20:18:39;80.57;;;6.50;;
29026;SDS011;16120;48.608;9.092;2023-03-16T20:22:34;77.30;;;5.40;;
29026;SDS011;16120;48.608;9.092;2023-03-16T20:26:29;79.97;;;5.60;;
29026;SDS011;16120;48.608;9.092;2023-03-16T20:30:26;77.63;;;4.73;;
29026;SDS011;16120;48.608;9.092;2023-03-16T20:34:22;77.33;;;5.33;;
29026;SDS011;16120;48.608;9.092;2023-03-16T20:38:18;79.47;;;5.60;;
29026;SDS011;16120;48.608;9.092;2023-03-16T20:42:14;81.40;;;5.10;;
29026;SDS011;16120;48.608;9.092;2023-03-16T20:46:14;76.97;;;4.83;;
29026;SDS011;16120;48.608;9.092;2023-03-16T20:50:16;78.00;;;5.50;;
29026;SDS011;16120;48.608;9.092;2023-03-16T20:54:11;78.40;;;5.03;;
29026;SDS011;16120;48.608;9.092;2023-03-16T20:58:12;75.80;;;5.10;;
29026;SDS011;16120;48.608;9.092;2023-03-16T21:02:13;76.93;;;4.70;;
29026;SDS011;16120;48.608;9.092;2023-03-16T21:06:18;77.90;;;4.90;;
29026;SDS011;16120;48.608;9.092;2023-03-16T21:10:15;78.10;;;4.50;;
29026;SDS011;16120;48.608;9.092;2023-03-16T21:14:12;77.13;;;4.83;;
29026;SDS011;16120;48.608;9.092;2023-03-16T21:18:12;85.30;;;7.47;;
29026;SDS011;16120;48.608;9.092;2023-03-16T21:22:10;82.77;;;7.17;;
29026;SDS011;16120;48.608;9.092;2023-03-16T21:26:13;77.60;;;4.73;;
29026;SDS011;16120;48.608;9.092;2023-03-16T21:30:11;78.50;;;5.23;;
29026;SDS011;16120;48.608;9.092;2023-03-16T21:34:16;78.47;;;5.00;;
29026;SDS011;16120;48.608;9.092;2023-03-16T21:38:16;87.37;;;7.17;;
29026;SDS011;16120;48.608;9.092;2023-03-16T21:42:11;84.70;;;5.30;;
29026;SDS011;16120;48.608;9.092;2023-03-16T21:46:09;77.27;;;4.90;;
29026;SDS011;16120;48.608;9.092;2023-03-16T21:54:12;79.17;;;5.10;;
29026;SDS011;16120;48.608;9.092;2023-03-16T21:58:08;77.30;;;4.93;;
29026;SDS011;16120;48.608;9.092;2023-03-16T22:02:09;81.03;;;5.10;;
29026;SDS011;16120;48.608;9.092;2023-03-16T22:06:05;77.87;;;5.03;;
29026;SDS011;16120;48.608;9.092;2023-03-16T22:10:04;78.10;;;4.73;;
29026;SDS011;16120;48.608;9.092;2023-03-16T22:14:07;78.13;;;4.93;;
29026;SDS011;16120;48.608;9.092;2023-03-16T22:18:03;77.50;;;4.80;;
29026;SDS011;16120;48.608;9.092;2023-03-16T22:22:00;78.27;;;5.20;;
29026;SDS011;16120;48.608;9.092;2023-03-16T22:25:57;76.72;;;4.47;;
29026;SDS011;16120;48.608;9.092;2023-03-16T22:29:52;77.87;;;5.30;;
29026;SDS011;16120;48.608;9.092;2023-03-16T22:33:47;77.30;;;4.87;;
29026;SDS011;16120;48.608;9.092;2023-03-16T22:37:43;77.87;;;5.20;;
29026;SDS011;16120;48.608;9.092;2023-03-16T22:41:39;81.20;;;4.70;;
29026;SDS011;16120;48.608;9.092;2023-03-16T22:45:35;77.37;;;4.97;;
29026;SDS011;16120;48.608;9.092;2023-03-16T22:49:30;79.07;;;4.80;;
29026;SDS011;16120;48.608;9.092;2023-03-16T22:53:26;79.87;;;4.70;;
29026;SDS011;16120;48.608;9.092;2023-03-16T22:57:23;80.67;;;5.10;;
29026;SDS011;16120;48.608;9.092;2023-03-16T23:01:19;78.50;;;5.17;;
29026;SDS011;16120;48.608;9.092;2023-03-16T23:05:18;78.67;;;5.47;;
29026;SDS011;16120;48.608;9.092;2023-03-16T23:09:15;80.90;;;5.50;;
29026;SDS011;16120;48.608;9.092;2023-03-16T23:13:12;79.23;;;5.10;;
29026;SDS011;16120;48.608;9.092;2023-03-16T23:17:11;77.57;;;4.93;;
29026;SDS011;16120;48.608;9.092;2023-03-16T23:21:11;76.50;;;4.60;;
29026;SDS011;16120;48.608;9.092;2023-03-16T23:25:06;78.30;;;5.03;;
29026;SDS011;16120;48.608;9.092;2023-03-16T23:29:03;77.60;;;5.03;;
29026;SDS011;16120;48.608;9.092;2023-03-16T23:32:58;77.17;;;5.07;;